sensor_id;sensor_type;location;lat;lon;timestamp;pressure;altitude;pressure_sealevel;temperature;humidity
28167;BME280;15455;53.376;-6.262;2023-11-18T00:02:31;100505.88;;;9.18;100.00
28167;BME280;15455;53.376;-6.262;2023-11-18T00:05:19;100494.59;;;9.17;100.00
28167;BME280;15455;53.376;-6.262;2023-11-18T00:08:05;100491.13;;;9.21;100.00
28167;BME280;15455;53.376;-6.262;2023-11-18T00:10:52;100473.75;;;9.24;100.00
28167;BME280;15455;53.376;-6.262;2023-11-18T00:13:38;100466.81;;;9.29;100.00
28167;BME280;15455;53.376;-6.262;2023-11-18T00:16:24;100472.84;;;9.34;100.00
28167;BME280;15455;53.376;-6.262;2023-11-18T00:19:10;100458.97;;;9.38;100.00
28167;BME280;15455;53.376;-6.262;2023-11-18T00:21:56;100454.63;;;9.43;100.00
28167;BME280;15455;53.376;-6.262;2023-11-18T00:24:41;100449.41;;;9.46;100.00
28167;BME280;15455;53.376;-6.262;2023-11-18T00:27:27;100432.88;;;9.50;100.00
28167;BME280;15455;53.376;-6.262;2023-11-18T00:30:13;100423.31;;;9.52;100.00
28167;BME280;15455;53.376;-6.262;2023-11-18T00:32:59;100398.09;;;9.56;100.00
28167;BME280;15455;53.376;-6.262;2023-11-18T00:35:45;100396.38;;;9.58;100.00
28167;BME280;15455;53.376;-6.262;2023-11-18T00:38:30;100402.44;;;9.59;100.00
28167;BME280;15455;53.376;-6.262;2023-11-18T00:41:16;100408.53;;;9.61;100.00
28167;BME280;15455;53.376;-6.262;2023-11-18T00:44:02;100405.94;;;9.61;100.00
28167;BME280;15455;53.376;-6.262;2023-11-18T00:46:48;100392.00;;;9.62;100.00
28167;BME280;15455;53.376;-6.262;2023-11-18T00:49:34;100378.97;;;9.63;100.00
28167;BME280;15455;53.376;-6.262;2023-11-18T00:52:19;100363.34;;;9.65;100.00
28167;BME280;15455;53.376;-6.262;2023-11-18T00:55:06;100358.13;;;9.66;100.00
28167;BME280;15455;53.376;-6.262;2023-11-18T00:57:52;100359.00;;;9.67;100.00
28167;BME280;15455;53.376;-6.262;2023-11-18T01:00:38;100352.03;;;9.67;100.00
28167;BME280;15455;53.376;-6.262;2023-11-18T01:03:23;100357.22;;;9.69;100.00
28167;BME280;15455;53.376;-6.262;2023-11-18T01:06:09;100342.50;;;9.69;100.00
28167;BME280;15455;53.376;-6.262;2023-11-18T01:08:55;100338.97;;;9.72;100.00
28167;BME280;15455;53.376;-6.262;2023-11-18T01:11:40;100328.56;;;9.70;100.00
28167;BME280;15455;53.376;-6.262;2023-11-18T01:14:46;100327.69;;;9.71;100.00
28167;BME280;15455;53.376;-6.262;2023-11-18T01:17:32;100317.28;;;9.71;100.00
28167;BME280;15455;53.376;-6.262;2023-11-18T01:20:17;100321.63;;;9.72;100.00
28167;BME280;15455;53.376;-6.262;2023-11-18T01:23:07;100309.44;;;9.71;100.00
28167;BME280;15455;53.376;-6.262;2023-11-18T01:25:52;100313.81;;;9.71;100.00
28167;BME280;15455;53.376;-6.262;2023-11-18T01:28:38;100307.69;;;9.72;100.00
28167;BME280;15455;53.376;-6.262;2023-11-18T01:31:26;100299.91;;;9.70;100.00
28167;BME280;15455;53.376;-6.262;2023-11-18T01:34:21;100304.22;;;9.74;100.00
28167;BME280;15455;53.376;-6.262;2023-11-18T01:37:07;100295.53;;;9.74;100.00
28167;BME280;15455;53.376;-6.262;2023-11-18T01:39:54;100297.28;;;9.75;100.00
28167;BME280;15455;53.376;-6.262;2023-11-18T01:42:42;100294.69;;;9.75;100.00
28167;BME280;15455;53.376;-6.262;2023-11-18T01:45:28;100282.53;;;9.74;100.00
28167;BME280;15455;53.376;-6.262;2023-11-18T01:48:14;100279.94;;;9.72;100.00
28167;BME280;15455;53.376;-6.262;2023-11-18T01:51:01;100279.03;;;9.72;100.00
28167;BME280;15455;53.376;-6.262;2023-11-18T01:53:49;100282.53;;;9.72;100.00
28167;BME280;15455;53.376;-6.262;2023-11-18T01:56:35;100278.19;;;9.70;100.00
28167;BME280;15455;53.376;-6.262;2023-11-18T01:59:21;100274.75;;;9.69;100.00
28167;BME280;15455;53.376;-6.262;2023-11-18T02:02:07;100282.56;;;9.68;100.00
28167;BME280;15455;53.376;-6.262;2023-11-18T02:04:52;100273.88;;;9.66;100.00
28167;BME280;15455;53.376;-6.262;2023-11-18T02:07:38;100267.81;;;9.67;100.00
28167;BME280;15455;53.376;-6.262;2023-11-18T02:10:24;100273.81;;;9.72;100.00
28167;BME280;15455;53.376;-6.262;2023-11-18T02:13:15;100274.69;;;9.74;100.00
28167;BME280;15455;53.376;-6.262;2023-11-18T02:16:07;100269.50;;;9.72;100.00
28167;BME280;15455;53.376;-6.262;2023-11-18T02:18:54;100262.53;;;9.74;100.00
28167;BME280;15455;53.376;-6.262;2023-11-18T02:21:40;100258.19;;;9.77;100.00
28167;BME280;15455;53.376;-6.262;2023-11-18T02:24:31;100252.06;;;9.78;100.00
28167;BME280;15455;53.376;-6.262;2023-11-18T02:27:22;100249.47;;;9.79;100.00
28167;BME280;15455;53.376;-6.262;2023-11-18T02:30:10;100239.94;;;9.78;100.00
28167;BME280;15455;53.376;-6.262;2023-11-18T02:33:05;100245.16;;;9.77;100.00
28167;BME280;15455;53.376;-6.262;2023-11-18T02:36:15;100239.03;;;9.79;100.00
28167;BME280;15455;53.376;-6.262;2023-11-18T02:42:07;100225.16;;;9.79;100.00
28167;BME280;15455;53.376;-6.262;2023-11-18T02:44:54;100228.63;;;9.82;100.00
28167;BME280;15455;53.376;-6.262;2023-11-18T02:47:45;100231.16;;;9.87;100.00
28167;BME280;15455;53.376;-6.262;2023-11-18T02:50:31;100231.97;;;9.97;100.00
28167;BME280;15455;53.376;-6.262;2023-11-18T02:53:17;100224.88;;;10.09;100.00
28167;BME280;15455;53.376;-6.262;2023-11-18T02:56:03;100222.19;;;10.20;100.00
28167;BME280;15455;53.376;-6.262;2023-11-18T02:58:50;100216.91;;;10.26;100.00
28167;BME280;15455;53.376;-6.262;2023-11-18T03:01:36;100210.75;;;10.37;100.00
28167;BME280;15455;53.376;-6.262;2023-11-18T03:04:24;100196.78;;;10.41;100.00
28167;BME280;15455;53.376;-6.262;2023-11-18T03:07:10;100189.84;;;10.41;100.00
28167;BME280;15455;53.376;-6.262;2023-11-18T03:09:55;100193.34;;;10.40;100.00
28167;BME280;15455;53.376;-6.262;2023-11-18T03:12:42;100193.34;;;10.40;100.00
28167;BME280;15455;53.376;-6.262;2023-11-18T03:15:28;100203.72;;;10.43;100.00
28167;BME280;15455;53.376;-6.262;2023-11-18T03:18:14;100206.25;;;10.51;100.00
28167;BME280;15455;53.376;-6.262;2023-11-18T03:21:01;100213.09;;;10.62;100.00
28167;BME280;15455;53.376;-6.262;2023-11-18T03:23:46;100211.25;;;10.71;100.00
28167;BME280;15455;53.376;-6.262;2023-11-18T03:26:32;100206.75;;;10.83;100.00
28167;BME280;15455;53.376;-6.262;2023-11-18T03:29:17;100192.78;;;10.88;100.00
28167;BME280;15455;53.376;-6.262;2023-11-18T03:32:03;100184.03;;;10.91;100.00
28167;BME280;15455;53.376;-6.262;2023-11-18T03:34:51;100190.09;;;10.93;100.00
28167;BME280;15455;53.376;-6.262;2023-11-18T03:37:37;100185.75;;;10.95;100.00
28167;BME280;15455;53.376;-6.262;2023-11-18T03:40:24;100189.22;;;10.94;100.00
28167;BME280;15455;53.376;-6.262;2023-11-18T03:43:10;100190.91;;;10.98;100.00
28167;BME280;15455;53.376;-6.262;2023-11-18T03:45:56;100176.91;;;11.04;100.00
28167;BME280;15455;53.376;-6.262;2023-11-18T03:48:44;100190.84;;;11.03;100.00
28167;BME280;15455;53.376;-6.262;2023-11-18T03:51:30;100186.44;;;11.05;100.00
28167;BME280;15455;53.376;-6.262;2023-11-18T03:54:15;100194.25;;;11.09;100.00
28167;BME280;15455;53.376;-6.262;2023-11-18T03:57:01;100185.44;;;11.17;100.00
28167;BME280;15455;53.376;-6.262;2023-11-18T03:59:46;100188.81;;;11.23;100.00
28167;BME280;15455;53.376;-6.262;2023-11-18T04:02:32;100190.53;;;11.26;100.00
28167;BME280;15455;53.376;-6.262;2023-11-18T04:05:20;100186.16;;;11.26;100.00
28167;BME280;15455;53.376;-6.262;2023-11-18T04:08:05;100164.38;;;11.27;100.00
28167;BME280;15455;53.376;-6.262;2023-11-18T04:10:51;100176.63;;;11.24;100.00
28167;BME280;15455;53.376;-6.262;2023-11-18T04:13:37;100171.38;;;11.27;100.00
28167;BME280;15455;53.376;-6.262;2023-11-18T04:16:22;100164.31;;;11.30;100.00
28167;BME280;15455;53.376;-6.262;2023-11-18T04:19:08;100166.88;;;11.35;100.00
28167;BME280;15455;53.376;-6.262;2023-11-18T04:21:54;100170.34;;;11.37;100.00
28167;BME280;15455;53.376;-6.262;2023-11-18T04:24:39;100181.59;;;11.41;100.00
28167;BME280;15455;53.376;-6.262;2023-11-18T04:27:24;100178.94;;;11.45;100.00
28167;BME280;15455;53.376;-6.262;2023-11-18T04:30:10;100188.44;;;11.48;100.00
28167;BME280;15455;53.376;-6.262;2023-11-18T04:32:58;100177.97;;;11.50;100.00
28167;BME280;15455;53.376;-6.262;2023-11-18T04:35:46;100178.84;;;11.50;100.00
28167;BME280;15455;53.376;-6.262;2023-11-18T04:38:31;100177.03;;;11.54;100.00
28167;BME280;15455;53.376;-6.262;2023-11-18T04:41:17;100174.38;;;11.57;100.00
28167;BME280;15455;53.376;-6.262;2023-11-18T04:44:02;100163.94;;;11.58;100.00
28167;BME280;15455;53.376;-6.262;2023-11-18T04:46:48;100164.78;;;11.59;100.00
28167;BME280;15455;53.376;-6.262;2023-11-18T04:49:36;100157.81;;;11.58;100.00
28167;BME280;15455;53.376;-6.262;2023-11-18T04:52:22;100146.63;;;11.51;100.00
28167;BME280;15455;53.376;-6.262;2023-11-18T04:55:08;100138.91;;;11.42;100.00
28167;BME280;15455;53.376;-6.262;2023-11-18T04:57:54;100154.56;;;11.43;100.00
28167;BME280;15455;53.376;-6.262;2023-11-18T05:00:40;100158.94;;;11.43;100.00
28167;BME280;15455;53.376;-6.262;2023-11-18T05:03:26;100142.28;;;11.49;100.00
28167;BME280;15455;53.376;-6.262;2023-11-18T05:06:12;100138.72;;;11.54;100.00
28167;BME280;15455;53.376;-6.262;2023-11-18T05:08:58;100129.94;;;11.57;100.00
28167;BME280;15455;53.376;-6.262;2023-11-18T05:11:44;100133.53;;;11.53;100.00
28167;BME280;15455;53.376;-6.262;2023-11-18T05:14:30;100138.81;;;11.46;100.00
28167;BME280;15455;53.376;-6.262;2023-11-18T05:17:17;100136.22;;;11.46;100.00
28167;BME280;15455;53.376;-6.262;2023-11-18T05:20:03;100143.16;;;11.49;100.00
28167;BME280;15455;53.376;-6.262;2023-11-18T05:22:49;100137.84;;;11.54;100.00
28167;BME280;15455;53.376;-6.262;2023-11-18T05:25:36;100139.50;;;11.59;100.00
28167;BME280;15455;53.376;-6.262;2023-11-18T05:28:22;100135.16;;;11.60;100.00
28167;BME280;15455;53.376;-6.262;2023-11-18T05:31:07;100123.00;;;11.57;100.00
28167;BME280;15455;53.376;-6.262;2023-11-18T05:33:54;100117.81;;;11.54;100.00
28167;BME280;15455;53.376;-6.262;2023-11-18T05:36:40;100118.72;;;11.52;100.00
28167;BME280;15455;53.376;-6.262;2023-11-18T05:39:26;100113.53;;;11.50;100.00
28167;BME280;15455;53.376;-6.262;2023-11-18T05:42:16;100105.75;;;11.45;100.00
28167;BME280;15455;53.376;-6.262;2023-11-18T05:45:01;100112.81;;;11.40;100.00
28167;BME280;15455;53.376;-6.262;2023-11-18T05:47:47;100102.44;;;11.36;100.00
28167;BME280;15455;53.376;-6.262;2023-11-18T05:50:32;100085.19;;;11.25;100.00
28167;BME280;15455;53.376;-6.262;2023-11-18T05:53:18;100086.22;;;11.15;100.00
28167;BME280;15455;53.376;-6.262;2023-11-18T05:56:04;100078.34;;;11.18;100.00
28167;BME280;15455;53.376;-6.262;2023-11-18T05:58:52;100080.97;;;11.17;100.00
28167;BME280;15455;53.376;-6.262;2023-11-18T06:01:40;100075.78;;;11.12;100.00
28167;BME280;15455;53.376;-6.262;2023-11-18T06:04:26;100076.72;;;11.09;100.00
28167;BME280;15455;53.376;-6.262;2023-11-18T06:07:11;100066.28;;;11.09;100.00
28167;BME280;15455;53.376;-6.262;2023-11-18T06:09:59;100073.16;;;11.13;100.00
28167;BME280;15455;53.376;-6.262;2023-11-18T06:12:46;100077.44;;;11.18;100.00
28167;BME280;15455;53.376;-6.262;2023-11-18T06:15:32;100085.28;;;11.18;100.00
28167;BME280;15455;53.376;-6.262;2023-11-18T06:18:18;100077.44;;;11.19;100.00
28167;BME280;15455;53.376;-6.262;2023-11-18T06:21:06;100083.59;;;11.17;100.00
28167;BME280;15455;53.376;-6.262;2023-11-18T06:23:52;100084.47;;;11.16;100.00
28167;BME280;15455;53.376;-6.262;2023-11-18T06:26:40;100069.75;;;11.10;100.00
28167;BME280;15455;53.376;-6.262;2023-11-18T06:29:27;100059.41;;;11.04;100.00
28167;BME280;15455;53.376;-6.262;2023-11-18T06:32:15;100062.03;;;11.04;100.00
28167;BME280;15455;53.376;-6.262;2023-11-18T06:35:01;100071.66;;;10.99;100.00
28167;BME280;15455;53.376;-6.262;2023-11-18T06:37:48;100068.19;;;10.98;100.00
28167;BME280;15455;53.376;-6.262;2023-11-18T06:40:33;100049.94;;;10.97;100.00
28167;BME280;15455;53.376;-6.262;2023-11-18T06:43:20;100062.06;;;11.01;100.00
28167;BME280;15455;53.376;-6.262;2023-11-18T06:46:07;100061.03;;;11.11;100.00
28167;BME280;15455;53.376;-6.262;2023-11-18T06:48:59;100060.97;;;11.16;100.00
28167;BME280;15455;53.376;-6.262;2023-11-18T06:51:49;100048.66;;;11.21;100.00
28167;BME280;15455;53.376;-6.262;2023-11-18T06:54:36;100054.59;;;11.32;100.00
28167;BME280;15455;53.376;-6.262;2023-11-18T06:57:23;100049.25;;;11.40;100.00
28167;BME280;15455;53.376;-6.262;2023-11-18T07:00:09;100054.31;;;11.49;100.00
28167;BME280;15455;53.376;-6.262;2023-11-18T07:02:55;100056.78;;;11.57;100.00
28167;BME280;15455;53.376;-6.262;2023-11-18T07:05:40;100071.50;;;11.61;100.00
28167;BME280;15455;53.376;-6.262;2023-11-18T07:08:26;100067.97;;;11.65;100.00
28167;BME280;15455;53.376;-6.262;2023-11-18T07:11:11;100059.22;;;11.68;100.00
28167;BME280;15455;53.376;-6.262;2023-11-18T07:13:57;100042.63;;;11.70;100.00
28167;BME280;15455;53.376;-6.262;2023-11-18T07:16:44;100033.84;;;11.71;100.00
28167;BME280;15455;53.376;-6.262;2023-11-18T07:19:30;100028.72;;;11.67;100.00
28167;BME280;15455;53.376;-6.262;2023-11-18T07:22:18;100020.19;;;11.58;100.00
28167;BME280;15455;53.376;-6.262;2023-11-18T07:25:05;100017.75;;;11.47;100.00
28167;BME280;15455;53.376;-6.262;2023-11-18T07:27:51;100010.97;;;11.37;100.00
28167;BME280;15455;53.376;-6.262;2023-11-18T07:30:37;100016.44;;;11.22;100.00
28167;BME280;15455;53.376;-6.262;2023-11-18T07:33:23;100015.78;;;11.09;100.00
28167;BME280;15455;53.376;-6.262;2023-11-18T07:36:09;100024.59;;;11.02;100.00
28167;BME280;15455;53.376;-6.262;2023-11-18T07:38:56;100018.59;;;10.98;100.00
28167;BME280;15455;53.376;-6.262;2023-11-18T07:41:44;100014.28;;;10.95;100.00
28167;BME280;15455;53.376;-6.262;2023-11-18T07:44:30;100021.31;;;10.92;100.00
28167;BME280;15455;53.376;-6.262;2023-11-18T07:47:18;100025.72;;;10.87;100.00
28167;BME280;15455;53.376;-6.262;2023-11-18T07:50:05;100022.25;;;10.86;100.00
28167;BME280;15455;53.376;-6.262;2023-11-18T07:52:51;100016.19;;;10.84;100.00
28167;BME280;15455;53.376;-6.262;2023-11-18T07:55:37;100012.78;;;10.81;100.00
28167;BME280;15455;53.376;-6.262;2023-11-18T07:58:25;100027.56;;;10.78;100.00
28167;BME280;15455;53.376;-6.262;2023-11-18T08:01:13;100019.78;;;10.75;100.00
28167;BME280;15455;53.376;-6.262;2023-11-18T08:03:59;100022.34;;;10.78;100.00
28167;BME280;15455;53.376;-6.262;2023-11-18T08:06:44;100019.75;;;10.78;100.00
28167;BME280;15455;53.376;-6.262;2023-11-18T08:09:30;100025.75;;;10.85;100.00
28167;BME280;15455;53.376;-6.262;2023-11-18T08:12:16;100032.69;;;10.86;100.00
28167;BME280;15455;53.376;-6.262;2023-11-18T08:15:02;100030.16;;;10.80;100.00
28167;BME280;15455;53.376;-6.262;2023-11-18T08:17:48;100029.38;;;10.75;100.00
28167;BME280;15455;53.376;-6.262;2023-11-18T08:20:34;100036.34;;;10.73;100.00
28167;BME280;15455;53.376;-6.262;2023-11-18T08:23:20;100032.84;;;10.75;100.00
28167;BME280;15455;53.376;-6.262;2023-11-18T08:26:05;100041.50;;;10.79;100.00
28167;BME280;15455;53.376;-6.262;2023-11-18T08:28:51;100039.75;;;10.80;100.00
28167;BME280;15455;53.376;-6.262;2023-11-18T08:31:38;100030.94;;;10.87;100.00
28167;BME280;15455;53.376;-6.262;2023-11-18T08:34:25;100048.41;;;10.82;100.00
28167;BME280;15455;53.376;-6.262;2023-11-18T08:37:11;100045.03;;;10.75;100.00
28167;BME280;15455;53.376;-6.262;2023-11-18T08:39:57;100038.22;;;10.65;100.00
28167;BME280;15455;53.376;-6.262;2023-11-18T08:42:44;100041.75;;;10.62;100.00
28167;BME280;15455;53.376;-6.262;2023-11-18T08:45:33;100049.44;;;10.70;100.00
28167;BME280;15455;53.376;-6.262;2023-11-18T08:48:20;100049.38;;;10.77;100.00
28167;BME280;15455;53.376;-6.262;2023-11-18T08:51:08;100051.81;;;10.88;100.00
28167;BME280;15455;53.376;-6.262;2023-11-18T08:53:57;100048.22;;;10.95;100.00
28167;BME280;15455;53.376;-6.262;2023-11-18T08:56:43;100040.25;;;11.03;100.00
28167;BME280;15455;53.376;-6.262;2023-11-18T08:59:29;100040.97;;;11.13;100.00
28167;BME280;15455;53.376;-6.262;2023-11-18T09:02:17;100029.44;;;11.25;100.00
28167;BME280;15455;53.376;-6.262;2023-11-18T09:05:03;100034.53;;;11.34;100.00
28167;BME280;15455;53.376;-6.262;2023-11-18T09:07:52;100037.84;;;11.42;100.00
28167;BME280;15455;53.376;-6.262;2023-11-18T09:10:43;100029.03;;;11.50;100.00
28167;BME280;15455;53.376;-6.262;2023-11-18T09:13:28;100032.38;;;11.58;100.00
28167;BME280;15455;53.376;-6.262;2023-11-18T09:16:15;100027.03;;;11.64;100.00
28167;BME280;15455;53.376;-6.262;2023-11-18T09:19:01;100023.38;;;11.74;100.00
28167;BME280;15455;53.376;-6.262;2023-11-18T09:21:48;100003.09;;;11.86;100.00
28167;BME280;15455;53.376;-6.262;2023-11-18T09:24:33;99986.41;;;11.91;100.00
28167;BME280;15455;53.376;-6.262;2023-11-18T09:27:21;99985.47;;;11.97;100.00
28167;BME280;15455;53.376;-6.262;2023-11-18T09:30:08;99976.59;;;12.04;100.00
28167;BME280;15455;53.376;-6.262;2023-11-18T09:33:00;99970.19;;;12.18;100.00
28167;BME280;15455;53.376;-6.262;2023-11-18T09:35:48;99972.59;;;12.28;100.00
28167;BME280;15455;53.376;-6.262;2023-11-18T09:38:40;99960.19;;;12.38;100.00
28167;BME280;15455;53.376;-6.262;2023-11-18T09:41:25;99955.75;;;12.40;100.00
28167;BME280;15455;53.376;-6.262;2023-11-18T09:44:13;99963.66;;;12.39;100.00
28167;BME280;15455;53.376;-6.262;2023-11-18T09:47:00;99955.78;;;12.39;100.00
28167;BME280;15455;53.376;-6.262;2023-11-18T09:49:52;99945.28;;;12.40;100.00
28167;BME280;15455;53.376;-6.262;2023-11-18T09:52:49;99951.38;;;12.42;100.00
28167;BME280;15455;53.376;-6.262;2023-11-18T09:59:32;99958.97;;;12.53;100.00
28167;BME280;15455;53.376;-6.262;2023-11-18T10:02:24;99946.56;;;12.61;100.00
28167;BME280;15455;53.376;-6.262;2023-11-18T10:05:11;99950.91;;;12.61;100.00
28167;BME280;15455;53.376;-6.262;2023-11-18T10:07:58;99954.41;;;12.61;100.00
28167;BME280;15455;53.376;-6.262;2023-11-18T10:10:47;99953.41;;;12.67;100.00
28167;BME280;15455;53.376;-6.262;2023-11-18T10:13:33;99940.16;;;12.73;100.00
28167;BME280;15455;53.376;-6.262;2023-11-18T10:16:19;99943.53;;;12.78;100.00
28167;BME280;15455;53.376;-6.262;2023-11-18T10:19:05;99956.56;;;12.81;100.00
28167;BME280;15455;53.376;-6.262;2023-11-18T10:21:53;99943.38;;;12.84;100.00
28167;BME280;15455;53.376;-6.262;2023-11-18T10:24:45;99952.00;;;12.88;100.00
28167;BME280;15455;53.376;-6.262;2023-11-18T10:27:31;99933.59;;;12.91;100.00
28167;BME280;15455;53.376;-6.262;2023-11-18T10:30:17;99945.72;;;12.95;100.00
28167;BME280;15455;53.376;-6.262;2023-11-18T10:33:06;99944.78;;;12.98;100.00
28167;BME280;15455;53.376;-6.262;2023-11-18T10:35:53;99942.16;;;12.98;100.00
28167;BME280;15455;53.376;-6.262;2023-11-18T10:38:41;99941.09;;;13.05;100.00
28167;BME280;15455;53.376;-6.262;2023-11-18T10:41:29;99937.59;;;13.06;100.00
28167;BME280;15455;53.376;-6.262;2023-11-18T10:44:16;99947.06;;;13.12;100.00
28167;BME280;15455;53.376;-6.262;2023-11-18T10:47:01;99946.13;;;13.14;100.00
28167;BME280;15455;53.376;-6.262;2023-11-18T10:49:50;99943.50;;;13.14;100.00
28167;BME280;15455;53.376;-6.262;2023-11-18T10:52:36;99929.53;;;13.14;100.00
28167;BME280;15455;53.376;-6.262;2023-11-18T10:55:22;99932.09;;;13.15;100.00
28167;BME280;15455;53.376;-6.262;2023-11-18T10:58:08;99916.38;;;13.15;100.00
28167;BME280;15455;53.376;-6.262;2023-11-18T11:00:54;99919.00;;;13.15;100.00
28167;BME280;15455;53.376;-6.262;2023-11-18T11:03:54;99920.66;;;13.19;100.00
28167;BME280;15455;53.376;-6.262;2023-11-18T11:06:45;99921.41;;;13.25;100.00
28167;BME280;15455;53.376;-6.262;2023-11-18T11:09:41;99922.03;;;13.33;100.00
28167;BME280;15455;53.376;-6.262;2023-11-18T11:12:33;99907.09;;;13.38;100.00
28167;BME280;15455;53.376;-6.262;2023-11-18T11:15:30;99909.63;;;13.41;100.00
28167;BME280;15455;53.376;-6.262;2023-11-18T11:18:33;99903.41;;;13.45;100.00
28167;BME280;15455;53.376;-6.262;2023-11-18T11:21:26;99903.41;;;13.45;100.00
28167;BME280;15455;53.376;-6.262;2023-11-18T11:24:27;99913.00;;;13.46;100.00
28167;BME280;15455;53.376;-6.262;2023-11-18T11:27:25;99914.63;;;13.49;100.00
28167;BME280;15455;53.376;-6.262;2023-11-18T11:30:22;99912.81;;;13.52;100.00
28167;BME280;15455;53.376;-6.262;2023-11-18T11:33:14;99899.78;;;13.49;100.00
28167;BME280;15455;53.376;-6.262;2023-11-18T11:36:11;99896.38;;;13.46;100.00
28167;BME280;15455;53.376;-6.262;2023-11-18T11:38:59;99896.50;;;13.41;100.00
28167;BME280;15455;53.376;-6.262;2023-11-18T11:41:45;99892.25;;;13.37;100.00
28167;BME280;15455;53.376;-6.262;2023-11-18T11:44:32;99897.56;;;13.34;100.00
28167;BME280;15455;53.376;-6.262;2023-11-18T11:47:26;99896.69;;;13.33;100.00
28167;BME280;15455;53.376;-6.262;2023-11-18T11:50:21;99907.19;;;13.33;100.00
28167;BME280;15455;53.376;-6.262;2023-11-18T11:53:21;99916.03;;;13.29;100.00
28167;BME280;15455;53.376;-6.262;2023-11-18T11:56:08;99924.19;;;13.17;100.00
28167;BME280;15455;53.376;-6.262;2023-11-18T11:58:59;99914.78;;;12.75;100.00
28167;BME280;15455;53.376;-6.262;2023-11-18T12:01:47;99906.66;;;12.51;100.00
28167;BME280;15455;53.376;-6.262;2023-11-18T12:04:38;99913.41;;;12.23;100.00
28167;BME280;15455;53.376;-6.262;2023-11-18T12:07:29;99903.19;;;12.13;100.00
28167;BME280;15455;53.376;-6.262;2023-11-18T12:10:20;99920.59;;;12.13;100.00
28167;BME280;15455;53.376;-6.262;2023-11-18T12:13:10;99917.91;;;12.16;100.00
28167;BME280;15455;53.376;-6.262;2023-11-18T12:16:05;99923.81;;;12.26;100.00
28167;BME280;15455;53.376;-6.262;2023-11-18T12:22:18;99931.97;;;12.51;100.00
28167;BME280;15455;53.376;-6.262;2023-11-18T12:27:56;99935.97;;;12.66;100.00
28167;BME280;15455;53.376;-6.262;2023-11-18T12:30:45;99933.31;;;12.67;100.00
28167;BME280;15455;53.376;-6.262;2023-11-18T12:49:24;99901.66;;;12.77;100.00
28167;BME280;15455;53.376;-6.262;2023-11-18T12:52:11;99890.25;;;12.79;100.00
28167;BME280;15455;53.376;-6.262;2023-11-18T12:55:00;99890.38;;;12.75;100.00
28167;BME280;15455;53.376;-6.262;2023-11-18T12:57:47;99880.88;;;12.71;100.00
28167;BME280;15455;53.376;-6.262;2023-11-18T13:00:33;99876.72;;;12.62;100.00
28167;BME280;15455;53.376;-6.262;2023-11-18T13:03:21;99875.03;;;12.59;100.00
28167;BME280;15455;53.376;-6.262;2023-11-18T13:06:06;99866.25;;;12.62;100.00
28167;BME280;15455;53.376;-6.262;2023-11-18T13:08:52;99863.69;;;12.60;100.00
28167;BME280;15455;53.376;-6.262;2023-11-18T13:11:40;99867.13;;;12.62;100.00
28167;BME280;15455;53.376;-6.262;2023-11-18T13:14:28;99867.09;;;12.64;100.00
28167;BME280;15455;53.376;-6.262;2023-11-18T13:17:16;99875.75;;;12.66;100.00
28167;BME280;15455;53.376;-6.262;2023-11-18T13:20:14;99866.09;;;12.68;100.00
28167;BME280;15455;53.376;-6.262;2023-11-18T13:23:01;99846.03;;;12.68;100.00
28167;BME280;15455;53.376;-6.262;2023-11-18T13:25:55;99851.94;;;12.75;100.00
28167;BME280;15455;53.376;-6.262;2023-11-18T13:28:41;99846.75;;;12.74;100.00
28167;BME280;15455;53.376;-6.262;2023-11-18T13:31:28;99831.09;;;12.72;100.00
28167;BME280;15455;53.376;-6.262;2023-11-18T13:34:14;99824.22;;;12.68;100.00
28167;BME280;15455;53.376;-6.262;2023-11-18T13:37:01;99825.13;;;12.67;100.00
28167;BME280;15455;53.376;-6.262;2023-11-18T13:39:55;99833.03;;;12.65;100.00
28167;BME280;15455;53.376;-6.262;2023-11-18T13:42:41;99842.69;;;12.62;100.00
28167;BME280;15455;53.376;-6.262;2023-11-18T13:45:28;99843.53;;;12.64;100.00
28167;BME280;15455;53.376;-6.262;2023-11-18T13:48:22;99833.66;;;12.74;100.00
28167;BME280;15455;53.376;-6.262;2023-11-18T13:51:11;99834.47;;;12.77;100.00
28167;BME280;15455;53.376;-6.262;2023-11-18T13:54:01;99824.78;;;12.79;100.00
28167;BME280;15455;53.376;-6.262;2023-11-18T13:56:47;99828.34;;;12.77;100.00
28167;BME280;15455;53.376;-6.262;2023-11-18T13:59:33;99825.75;;;12.75;100.00
28167;BME280;15455;53.376;-6.262;2023-11-18T14:02:20;99817.06;;;12.75;100.00
28167;BME280;15455;53.376;-6.262;2023-11-18T14:05:17;99811.81;;;12.75;100.00
28167;BME280;15455;53.376;-6.262;2023-11-18T14:08:04;99815.28;;;12.75;100.00
28167;BME280;15455;53.376;-6.262;2023-11-18T14:10:55;99818.84;;;12.74;100.00
28167;BME280;15455;53.376;-6.262;2023-11-18T14:13:48;99814.28;;;12.81;100.00
28167;BME280;15455;53.376;-6.262;2023-11-18T14:16:33;99804.69;;;12.81;100.00
28167;BME280;15455;53.376;-6.262;2023-11-18T14:19:19;99807.31;;;12.81;100.00
28167;BME280;15455;53.376;-6.262;2023-11-18T14:22:05;99805.63;;;12.79;100.00
28167;BME280;15455;53.376;-6.262;2023-11-18T14:24:55;99789.19;;;12.72;100.00
28167;BME280;15455;53.376;-6.262;2023-11-18T14:27:40;99797.84;;;12.76;100.00
28167;BME280;15455;53.376;-6.262;2023-11-18T14:30:26;99788.88;;;12.84;100.00
28167;BME280;15455;53.376;-6.262;2023-11-18T14:33:11;99783.28;;;12.97;100.00
28167;BME280;15455;53.376;-6.262;2023-11-18T14:35:57;99774.13;;;13.13;100.00
28167;BME280;15455;53.376;-6.262;2023-11-18T14:38:42;99773.69;;;13.27;100.00
28167;BME280;15455;53.376;-6.262;2023-11-18T14:41:30;99759.53;;;13.34;100.00
28167;BME280;15455;53.376;-6.262;2023-11-18T14:44:16;99763.69;;;13.42;100.00
28167;BME280;15455;53.376;-6.262;2023-11-18T14:47:03;99772.38;;;13.44;100.00
28167;BME280;15455;53.376;-6.262;2023-11-18T14:49:50;99765.38;;;13.44;100.00